createdAt,value
2018-06-14T00:00:09.886Z,6.77
2018-06-14T00:02:38.089Z,6.93
2018-06-14T00:05:06.359Z,7.40
2018-06-14T00:07:34.514Z,7.47
2018-06-14T00:10:03.907Z,7.77
2018-06-14T00:12:32.040Z,6.67
2018-06-14T00:15:00.720Z,7.20
2018-06-14T00:17:28.951Z,7.40
2018-06-14T00:19:57.190Z,7.13
2018-06-14T00:22:25.496Z,7.70
2018-06-14T00:24:53.653Z,7.80
2018-06-14T00:27:21.844Z,8.03
2018-06-14T00:29:49.969Z,7.65
2018-06-14T00:32:18.134Z,7.50
2018-06-14T00:34:46.490Z,7.97
2018-06-14T00:37:15.754Z,8.42
2018-06-14T00:39:44.770Z,7.40
2018-06-14T00:42:12.944Z,7.60
2018-06-14T00:44:41.407Z,9.00
2018-06-14T00:47:09.565Z,8.43
2018-06-14T00:49:37.679Z,9.30
2018-06-14T00:52:06.373Z,9.80
2018-06-14T00:54:34.466Z,8.83
2018-06-14T00:57:13.878Z,8.57
2018-06-14T00:59:42.064Z,9.40
2018-06-14T01:02:10.333Z,10.23
2018-06-14T01:04:38.489Z,8.87
2018-06-14T01:07:06.904Z,8.90
2018-06-14T01:09:35.065Z,8.87
2018-06-14T01:12:03.178Z,8.90
2018-06-14T01:14:31.563Z,9.23
2018-06-14T01:16:59.795Z,9.70
2018-06-14T01:19:27.978Z,8.60
2018-06-14T01:21:56.035Z,8.73
2018-06-14T01:24:24.119Z,9.10
2018-06-14T01:26:54.114Z,9.03
2018-06-14T01:29:22.343Z,9.25
2018-06-14T01:31:50.660Z,11.33
2018-06-14T01:34:18.924Z,9.90
2018-06-14T01:36:47.163Z,8.40
2018-06-14T01:39:15.797Z,10.17
2018-06-14T01:41:43.983Z,9.87
2018-06-14T01:44:13.059Z,9.80
2018-06-14T01:46:41.263Z,11.20
2018-06-14T01:49:09.379Z,9.23
2018-06-14T01:51:37.700Z,9.27
2018-06-14T01:54:05.973Z,9.47
2018-06-14T01:56:34.320Z,9.50
2018-06-14T01:59:02.438Z,10.93
2018-06-14T02:01:30.706Z,10.20
2018-06-14T02:03:59.258Z,9.93
2018-06-14T02:06:27.564Z,10.30
2018-06-14T02:08:55.731Z,9.50
2018-06-14T02:11:23.859Z,10.60
2018-06-14T02:13:52.037Z,9.20
2018-06-14T02:16:20.315Z,9.85
2018-06-14T02:18:48.407Z,9.70
2018-06-14T02:21:16.672Z,11.20
2018-06-14T02:23:45.903Z,11.30
2018-06-14T02:26:14.043Z,10.70
2018-06-14T02:28:42.274Z,11.07
2018-06-14T02:31:10.553Z,11.10
2018-06-14T02:33:38.697Z,10.40
2018-06-14T02:36:06.796Z,11.07
2018-06-14T02:38:34.911Z,11.37
2018-06-14T02:41:03.286Z,11.07
2018-06-14T02:43:31.337Z,10.53
2018-06-14T02:45:59.482Z,11.30
2018-06-14T02:48:27.657Z,10.88
2018-06-14T02:50:55.815Z,11.55
2018-06-14T02:53:23.951Z,11.33
2018-06-14T02:55:52.072Z,12.80
2018-06-14T02:58:21.004Z,10.97
2018-06-14T03:00:49.118Z,11.48
2018-06-14T03:03:17.228Z,11.47
2018-06-14T03:05:46.087Z,11.03
2018-06-14T03:08:15.021Z,10.97
2018-06-14T03:10:43.859Z,12.40
2018-06-14T03:13:11.937Z,11.50
2018-06-14T03:15:40.161Z,10.63
2018-06-14T03:18:08.357Z,11.60
2018-06-14T03:20:36.603Z,11.73
2018-06-14T03:23:04.882Z,12.30
2018-06-14T03:25:33.154Z,10.83
2018-06-14T03:28:01.527Z,11.60
2018-06-14T03:30:29.631Z,11.70
2018-06-14T03:32:57.762Z,10.73
2018-06-14T03:35:25.914Z,11.97
2018-06-14T03:37:54.087Z,11.43
2018-06-14T03:40:23.048Z,12.07
2018-06-14T03:42:51.183Z,11.93
2018-06-14T03:45:20.966Z,11.30
2018-06-14T03:47:50.411Z,12.60
2018-06-14T03:50:18.721Z,11.87
2018-06-14T03:52:46.859Z,11.90
2018-06-14T03:55:15.512Z,13.13
2018-06-14T03:57:44.088Z,11.30
2018-06-14T04:00:12.551Z,10.67
2018-06-14T04:02:40.881Z,11.00
2018-06-14T04:05:09.017Z,11.80
2018-06-14T04:07:37.232Z,10.40
2018-06-14T04:10:05.629Z,11.60
2018-06-14T04:12:33.835Z,11.70
2018-06-14T04:15:01.960Z,12.10
2018-06-14T04:17:30.114Z,13.45
2018-06-14T04:19:58.360Z,13.00
2018-06-14T04:22:26.745Z,12.43
2018-06-14T04:24:55.113Z,12.57
2018-06-14T04:27:23.326Z,10.87
2018-06-14T04:29:51.471Z,11.75
2018-06-14T04:32:19.628Z,11.47
2018-06-14T04:34:47.827Z,13.33
2018-06-14T04:37:16.597Z,12.60
2018-06-14T04:39:44.907Z,12.60
2018-06-14T04:42:13.227Z,12.13
2018-06-14T04:44:41.347Z,11.30
2018-06-14T04:47:09.653Z,11.08
2018-06-14T04:49:38.204Z,11.40
2018-06-14T04:52:06.739Z,11.70
2018-06-14T04:54:35.076Z,11.13
2018-06-14T04:57:03.854Z,11.90
2018-06-14T04:59:31.988Z,10.83
2018-06-14T05:02:00.081Z,11.65
2018-06-14T05:04:28.282Z,11.30
2018-06-14T05:06:56.437Z,10.60
2018-06-14T05:09:25.096Z,11.53
2018-06-14T05:11:53.270Z,11.20
2018-06-14T05:14:21.464Z,11.12
2018-06-14T05:16:49.694Z,12.20
2018-06-14T05:19:17.866Z,9.77
2018-06-14T05:21:46.757Z,12.03
2018-06-14T05:24:15.297Z,11.10
2018-06-14T05:26:43.454Z,10.97
2018-06-14T05:29:11.745Z,10.40
2018-06-14T05:31:40.067Z,11.13
2018-06-14T05:34:08.208Z,11.90
2018-06-14T05:36:36.287Z,12.20
2018-06-14T05:39:07.428Z,11.65
2018-06-14T05:41:35.705Z,12.07
2018-06-14T05:44:04.317Z,10.37
2018-06-14T05:46:33.837Z,12.67
2018-06-14T05:49:02.065Z,11.22
2018-06-14T05:51:30.455Z,12.47
2018-06-14T05:53:58.571Z,11.63
2018-06-14T05:56:27.015Z,12.37
2018-06-14T05:58:55.275Z,12.80
2018-06-14T06:01:24.006Z,12.20
2018-06-14T06:03:52.367Z,12.05
2018-06-14T06:06:20.501Z,12.23
2018-06-14T06:08:48.641Z,11.60
2018-06-14T06:11:16.971Z,12.10
2018-06-14T06:13:45.652Z,11.70
2018-06-14T06:16:13.784Z,11.20
2018-06-14T06:18:42.100Z,11.00
2018-06-14T06:21:10.525Z,12.23
2018-06-14T06:23:38.866Z,12.20
2018-06-14T06:26:07.024Z,12.50
2018-06-14T06:28:35.079Z,12.17
2018-06-14T06:31:03.229Z,11.30
2018-06-14T06:33:31.486Z,12.50
2018-06-14T06:35:59.436Z,10.80
2018-06-14T06:38:27.567Z,11.78
2018-06-14T06:40:55.784Z,12.00
2018-06-14T06:43:23.942Z,12.18
2018-06-14T06:45:52.055Z,13.10
2018-06-14T06:48:20.496Z,12.87
2018-06-14T06:50:48.630Z,12.70
2018-06-14T06:53:17.094Z,13.90
2018-06-14T06:55:45.461Z,12.60
2018-06-14T06:58:13.569Z,12.63
2018-06-14T07:00:41.695Z,13.00
2018-06-14T07:03:10.171Z,12.50
2018-06-14T07:05:38.344Z,12.57
2018-06-14T07:08:19.086Z,12.37
2018-06-14T07:11:15.388Z,12.26
2018-06-14T07:13:44.700Z,12.00
2018-06-14T07:16:12.896Z,12.83
2018-06-14T07:18:41.032Z,13.47
2018-06-14T07:21:09.280Z,12.97
2018-06-14T07:23:37.532Z,11.80
2018-06-14T07:26:05.719Z,12.60
2018-06-14T07:28:33.936Z,11.93
2018-06-14T07:31:02.047Z,11.70
2018-06-14T07:33:30.272Z,12.10
2018-06-14T07:35:58.980Z,12.68
2018-06-14T07:38:27.152Z,11.60
2018-06-14T07:40:55.403Z,11.22
2018-06-14T07:43:23.628Z,10.88
2018-06-14T07:45:51.751Z,13.08
2018-06-14T07:48:19.848Z,11.80
2018-06-14T07:50:48.016Z,12.40
2018-06-14T07:53:16.262Z,12.47
2018-06-14T07:55:44.639Z,10.73
2018-06-14T07:58:12.853Z,10.80
2018-06-14T08:00:41.110Z,10.33
2018-06-14T08:03:09.713Z,10.32
2018-06-14T08:05:37.897Z,10.00
2018-06-14T08:08:06.065Z,9.97
2018-06-14T08:10:34.188Z,8.80
2018-06-14T08:13:02.407Z,8.15
2018-06-14T08:15:30.566Z,7.83
2018-06-14T08:17:59.265Z,8.28
2018-06-14T08:20:27.546Z,7.55
2018-06-14T08:22:55.804Z,9.30
2018-06-14T08:25:23.929Z,9.30
2018-06-14T08:27:52.119Z,8.68
2018-06-14T08:30:20.280Z,7.60
2018-06-14T08:32:48.376Z,7.60
2018-06-14T08:35:18.601Z,7.60
2018-06-14T08:37:47.483Z,8.80
2018-06-14T08:40:15.628Z,9.50
2018-06-14T08:42:43.772Z,8.77
2018-06-14T08:45:11.864Z,8.63
2018-06-14T08:47:40.222Z,9.90
2018-06-14T08:50:08.384Z,9.00
2018-06-14T08:52:36.497Z,8.97
2018-06-14T08:55:04.813Z,8.20
2018-06-14T08:57:33.157Z,7.63
2018-06-14T09:00:01.460Z,7.50
2018-06-14T09:02:29.619Z,6.47
2018-06-14T09:04:57.753Z,6.60
2018-06-14T09:07:25.831Z,6.70
2018-06-14T09:09:53.944Z,7.83
2018-06-14T09:12:22.010Z,8.78
2018-06-14T09:14:50.599Z,7.90
2018-06-14T09:17:18.639Z,7.93
2018-06-14T09:19:47.804Z,6.33
2018-06-14T09:22:15.880Z,7.13
2018-06-14T09:24:45.480Z,6.77
2018-06-14T09:27:13.561Z,7.43
2018-06-14T09:29:42.544Z,7.33
2018-06-14T09:32:11.138Z,7.30
2018-06-14T09:34:39.420Z,8.53
2018-06-14T09:37:07.564Z,7.90
2018-06-14T09:39:35.860Z,7.33
2018-06-14T09:42:04.295Z,7.75
2018-06-14T09:44:33.471Z,8.30
2018-06-14T09:47:01.734Z,8.35
2018-06-14T09:49:29.880Z,7.77
2018-06-14T09:51:58.036Z,7.90
2018-06-14T09:54:26.185Z,6.77
2018-06-14T09:56:54.261Z,6.92
2018-06-14T09:59:22.370Z,7.13
2018-06-14T10:01:50.575Z,6.77
2018-06-14T10:04:18.677Z,7.27
2018-06-14T10:06:46.863Z,6.43
2018-06-14T10:09:15.306Z,6.83
2018-06-14T10:11:43.695Z,6.10
2018-06-14T10:14:11.810Z,5.70
2018-06-14T10:16:39.919Z,6.17
2018-06-14T10:19:08.025Z,6.90
2018-06-14T10:21:36.325Z,6.43
2018-06-14T10:24:04.640Z,6.47
2018-06-14T10:26:32.809Z,6.40
2018-06-14T10:29:00.961Z,6.53
2018-06-14T10:31:29.256Z,5.80
2018-06-14T10:33:57.425Z,6.62
2018-06-14T10:36:25.677Z,6.30
2018-06-14T10:38:53.792Z,6.35
2018-06-14T10:41:22.089Z,5.97
2018-06-14T10:43:50.322Z,8.00
2018-06-14T10:46:18.464Z,6.53
2018-06-14T10:48:47.090Z,6.87
2018-06-14T10:51:15.187Z,7.10
2018-06-14T10:53:43.507Z,8.35
2018-06-14T10:56:23.146Z,7.10
2018-06-14T10:58:56.798Z,7.10
2018-06-14T11:01:25.357Z,7.07
2018-06-14T11:03:53.484Z,7.60
2018-06-14T11:06:21.687Z,8.10
2018-06-14T11:08:49.827Z,12.63
2018-06-14T11:11:18.361Z,6.83
2018-06-14T11:13:47.353Z,7.97
2018-06-14T11:16:15.526Z,8.17
2018-06-14T11:18:43.730Z,7.63
2018-06-14T11:21:11.840Z,8.10
2018-06-14T11:23:40.283Z,7.70
2018-06-14T11:26:08.370Z,6.97
2018-06-14T11:28:38.410Z,7.33
2018-06-14T11:31:07.092Z,8.90
2018-06-14T11:33:35.256Z,7.37
2018-06-14T11:36:03.650Z,8.60
2018-06-14T11:38:31.831Z,8.03
2018-06-14T11:41:03.318Z,9.40
2018-06-14T11:43:31.461Z,8.80
2018-06-14T11:45:59.612Z,8.75
2018-06-14T11:48:28.158Z,7.50
2018-06-14T11:50:56.376Z,7.97
2018-06-14T11:53:24.802Z,9.10
2018-06-14T11:55:52.949Z,8.17
2018-06-14T11:58:21.230Z,9.50
2018-06-14T12:00:49.521Z,10.30
2018-06-14T12:03:18.340Z,9.20
2018-06-14T12:05:47.594Z,9.80
2018-06-14T12:08:15.902Z,9.40
2018-06-14T12:10:44.153Z,10.63
2018-06-14T12:13:12.262Z,9.23
2018-06-14T12:15:40.590Z,9.30
2018-06-14T12:18:08.762Z,9.27
2018-06-14T12:20:37.396Z,9.20
2018-06-14T12:23:06.010Z,11.97
2018-06-14T12:25:34.243Z,11.18
2018-06-14T12:28:02.456Z,10.80
2018-06-14T12:30:30.676Z,12.15
2018-06-14T12:32:58.858Z,11.53
2018-06-14T12:35:27.109Z,12.15
2018-06-14T12:37:55.587Z,10.90
2018-06-14T12:40:23.778Z,11.17
2018-06-14T12:42:52.031Z,10.90
2018-06-14T12:45:20.312Z,10.30
2018-06-14T12:47:49.410Z,11.08
2018-06-14T12:50:18.608Z,11.65
2018-06-14T12:52:47.197Z,10.40
2018-06-14T12:55:15.363Z,10.80
2018-06-14T12:57:43.534Z,10.50
2018-06-14T13:00:11.719Z,9.93
2018-06-14T13:02:45.576Z,9.57
2018-06-14T13:05:13.658Z,8.73
2018-06-14T13:07:41.852Z,9.50
2018-06-14T13:10:12.311Z,10.23
2018-06-14T13:12:40.570Z,9.30
2018-06-14T13:15:08.879Z,9.33
2018-06-14T13:17:37.081Z,8.67
2018-06-14T13:20:05.213Z,8.90
2018-06-14T13:22:33.418Z,8.30
2018-06-14T13:25:01.536Z,8.20
2018-06-14T13:27:29.912Z,9.30
2018-06-14T13:29:59.390Z,9.70
2018-06-14T13:32:28.108Z,8.53
2018-06-14T13:34:56.312Z,8.03
2018-06-14T13:37:24.556Z,8.13
2018-06-14T13:39:52.652Z,9.30
2018-06-14T13:42:20.847Z,8.40
2018-06-14T13:44:48.979Z,7.77
2018-06-14T13:47:18.622Z,7.97
2018-06-14T13:49:47.752Z,6.43
2018-06-14T13:52:17.333Z,7.67
2018-06-14T13:54:45.456Z,7.70
2018-06-14T13:57:14.619Z,7.00
2018-06-14T13:59:42.843Z,6.33
2018-06-14T14:02:11.105Z,7.80
2018-06-14T14:04:39.192Z,6.60
2018-06-14T14:07:07.283Z,6.73
2018-06-14T14:09:35.548Z,7.10
2018-06-14T14:12:03.806Z,8.18
2018-06-14T14:14:32.197Z,7.67
2018-06-14T14:17:01.280Z,7.55
2018-06-14T14:19:29.468Z,6.90
2018-06-14T14:21:57.724Z,5.73
2018-06-14T14:24:26.190Z,6.30
2018-06-14T14:26:54.661Z,5.87
2018-06-14T14:29:22.824Z,5.15
2018-06-14T14:31:51.299Z,6.20
2018-06-14T14:34:20.139Z,5.90
2018-06-14T14:36:49.011Z,6.80
2018-06-14T14:39:17.388Z,5.80
2018-06-14T14:41:45.678Z,7.40
2018-06-14T14:44:13.814Z,6.53
2018-06-14T14:46:41.968Z,7.70
2018-06-14T14:49:10.235Z,6.90
2018-06-14T14:51:38.339Z,8.43
2018-06-14T14:54:06.540Z,6.62
2018-06-14T14:56:35.158Z,6.67
2018-06-14T14:59:03.289Z,5.92
2018-06-14T15:01:31.530Z,5.53
2018-06-14T15:03:59.637Z,6.03
2018-06-14T15:06:28.391Z,5.72
2018-06-14T15:08:57.230Z,5.53
2018-06-14T15:11:25.451Z,7.22
2018-06-14T15:13:54.023Z,6.05
2018-06-14T15:16:22.145Z,6.00
2018-06-14T15:18:50.399Z,5.40
2018-06-14T15:21:19.115Z,4.87
2018-06-14T15:23:47.484Z,4.90
2018-06-14T15:26:16.261Z,5.17
2018-06-14T15:28:44.532Z,5.70
2018-06-14T15:31:12.820Z,4.77
2018-06-14T15:33:41.818Z,5.00
2018-06-14T15:36:09.848Z,4.30
2018-06-14T15:38:37.965Z,5.30
2018-06-14T15:41:06.304Z,6.00
2018-06-14T15:43:42.988Z,5.60
2018-06-14T15:46:22.827Z,5.80
2018-06-14T15:48:51.149Z,5.50
2018-06-14T15:51:19.163Z,4.90
2018-06-14T15:53:48.012Z,5.30
2018-06-14T15:56:32.981Z,7.80
2018-06-14T15:59:03.691Z,5.85
2018-06-14T16:01:33.870Z,6.00
2018-06-14T16:04:02.726Z,6.27
2018-06-14T16:06:32.297Z,5.77
2018-06-14T16:09:00.457Z,5.30
2018-06-14T16:11:29.168Z,5.50
2018-06-14T16:13:58.265Z,5.73
2018-06-14T16:16:27.163Z,6.10
2018-06-14T16:18:55.812Z,6.85
2018-06-14T16:21:23.875Z,6.30
2018-06-14T16:23:52.588Z,5.40
2018-06-14T16:26:20.720Z,5.50
2018-06-14T16:28:49.569Z,5.70
2018-06-14T16:31:19.211Z,6.40
2018-06-14T16:33:48.217Z,5.33
2018-06-14T16:36:16.425Z,5.80
2018-06-14T16:38:44.775Z,5.17
2018-06-14T16:41:12.923Z,6.27
2018-06-14T16:43:41.423Z,6.53
2018-06-14T16:46:09.583Z,5.80
2018-06-14T16:48:37.739Z,5.87
2018-06-14T16:51:06.100Z,5.87
2018-06-14T16:53:34.376Z,6.15
2018-06-14T16:56:02.572Z,6.30
2018-06-14T16:58:30.721Z,5.97
2018-06-14T17:00:58.995Z,6.03
2018-06-14T17:03:27.131Z,6.40
2018-06-14T17:05:55.255Z,6.03
2018-06-14T17:08:23.380Z,6.60
2018-06-14T17:10:51.801Z,6.37
2018-06-14T17:13:20.135Z,6.70
2018-06-14T17:15:48.519Z,6.40
2018-06-14T17:18:16.639Z,6.30
2018-06-14T17:20:44.934Z,6.30
2018-06-14T17:23:13.072Z,6.10
2018-06-14T17:25:42.421Z,6.20
2018-06-14T17:28:10.785Z,5.40
2018-06-14T17:30:39.035Z,5.70
2018-06-14T17:33:07.352Z,5.90
2018-06-14T17:35:35.564Z,5.92
2018-06-14T17:38:03.716Z,6.25
2018-06-14T17:40:32.038Z,5.93
2018-06-14T17:43:00.215Z,5.93
2018-06-14T17:45:28.386Z,6.20
2018-06-14T17:47:56.517Z,6.40
2018-06-14T17:50:24.628Z,6.40
2018-06-14T17:52:56.834Z,5.90
2018-06-14T17:55:25.994Z,5.72
2018-06-14T17:57:54.296Z,5.60
2018-06-14T18:00:22.763Z,6.50
2018-06-14T18:02:50.862Z,6.10
2018-06-14T18:05:19.706Z,5.78
2018-06-14T18:07:48.137Z,7.03
2018-06-14T18:10:18.394Z,6.60
2018-06-14T18:12:46.936Z,6.40
2018-06-14T18:15:15.557Z,6.60
2018-06-14T18:17:44.520Z,6.53
2018-06-14T18:20:12.641Z,6.33
2018-06-14T18:22:40.928Z,7.10
2018-06-14T18:25:09.293Z,6.37
2018-06-14T18:27:37.654Z,7.40
2018-06-14T18:30:05.924Z,6.17
2018-06-14T18:32:34.461Z,6.27
2018-06-14T18:35:02.552Z,6.37
2018-06-14T18:37:30.733Z,6.37
2018-06-14T18:39:58.832Z,7.03
2018-06-14T18:42:26.956Z,7.50
2018-06-14T18:44:55.094Z,7.00
2018-06-14T18:47:23.451Z,8.17
2018-06-14T18:49:51.746Z,7.13
2018-06-14T18:52:20.002Z,7.23
2018-06-14T18:54:48.554Z,7.33
2018-06-14T18:57:16.760Z,7.03
2018-06-14T18:59:48.440Z,7.37
2018-06-14T19:02:16.922Z,7.00
2018-06-14T19:04:45.045Z,7.20
2018-06-14T19:07:13.416Z,7.43
2018-06-14T19:09:41.637Z,6.93
2018-06-14T19:12:10.060Z,6.63
2018-06-14T19:14:38.369Z,6.00
2018-06-14T19:17:06.705Z,7.03
2018-06-14T19:19:34.847Z,7.22
2018-06-14T19:22:03.151Z,6.95
2018-06-14T19:24:31.668Z,7.45
2018-06-14T19:26:59.915Z,7.12
2018-06-14T19:29:31.650Z,7.42
2018-06-14T19:32:00.122Z,7.47
2018-06-14T19:34:31.038Z,8.03
2018-06-14T19:36:59.231Z,6.83
2018-06-14T19:39:27.406Z,7.87
2018-06-14T19:41:55.655Z,7.40
2018-06-14T19:44:23.945Z,7.40
2018-06-14T19:46:52.535Z,8.77
2018-06-14T19:49:24.806Z,7.30
2018-06-14T19:51:53.755Z,8.67
2018-06-14T19:54:22.076Z,7.30
2018-06-14T19:56:51.232Z,8.10
2018-06-14T19:59:20.059Z,7.30
2018-06-14T20:01:48.195Z,7.77
2018-06-14T20:04:17.539Z,7.10
2018-06-14T20:06:46.229Z,8.10
2018-06-14T20:09:15.226Z,8.10
2018-06-14T20:11:43.702Z,7.90
2018-06-14T20:14:11.911Z,8.50
2018-06-14T20:16:40.202Z,8.53
2018-06-14T20:19:09.238Z,8.07
2018-06-14T20:21:37.520Z,9.08
2018-06-14T20:24:06.975Z,8.38
2018-06-14T20:26:37.740Z,7.77
2018-06-14T20:29:06.552Z,8.53
2018-06-14T20:31:35.357Z,8.43
2018-06-14T20:34:03.600Z,8.48
2018-06-14T20:36:31.745Z,9.07
2018-06-14T20:39:00.159Z,9.65
2018-06-14T20:41:28.492Z,8.83
2018-06-14T20:43:56.875Z,9.00
2018-06-14T20:46:25.078Z,9.77
2018-06-14T20:48:53.528Z,9.27
2018-06-14T20:51:22.215Z,9.50
2018-06-14T20:53:51.849Z,9.78
2018-06-14T20:56:20.627Z,9.30
2018-06-14T20:58:49.416Z,8.97
2018-06-14T21:01:19.847Z,9.03
2018-06-14T21:03:48.147Z,9.90
2018-06-14T21:06:16.370Z,10.20
2018-06-14T21:08:44.471Z,9.30
2018-06-14T21:11:12.555Z,10.60
2018-06-14T21:13:40.686Z,11.40
2018-06-14T21:16:08.943Z,10.67
2018-06-14T21:18:37.056Z,10.73
2018-06-14T21:21:05.131Z,10.77
2018-06-14T21:23:33.282Z,10.10
2018-06-14T21:26:01.419Z,10.68
2018-06-14T21:28:29.793Z,11.20
2018-06-14T21:30:57.883Z,9.90
2018-06-14T21:33:25.975Z,9.50
2018-06-14T21:35:54.079Z,8.30
2018-06-14T21:38:22.295Z,7.17
2018-06-14T21:40:50.570Z,6.67
2018-06-14T21:43:18.988Z,6.37
2018-06-14T21:45:47.165Z,6.70
2018-06-14T21:48:15.359Z,5.90
2018-06-14T21:50:43.718Z,5.47
2018-06-14T21:53:11.871Z,4.77
2018-06-14T21:55:40.141Z,5.07
2018-06-14T21:58:08.320Z,4.70
2018-06-14T22:00:36.449Z,5.20
2018-06-14T22:04:12.178Z,4.60
2018-06-14T22:06:40.278Z,4.90
2018-06-14T22:09:08.727Z,4.40
2018-06-14T22:11:36.861Z,4.73
2018-06-14T22:14:05.540Z,4.77
2018-06-14T22:16:33.855Z,4.47
2018-06-14T22:19:02.126Z,4.62
2018-06-14T22:21:31.421Z,4.97
2018-06-14T22:23:59.609Z,5.10
2018-06-14T22:26:28.059Z,4.90
2018-06-14T22:28:56.263Z,4.95
2018-06-14T22:31:24.343Z,5.30
2018-06-14T22:34:04.056Z,4.90
2018-06-14T22:36:32.251Z,4.87
2018-06-14T22:39:00.392Z,5.25
2018-06-14T22:41:28.684Z,4.80
2018-06-14T22:43:57.835Z,4.77
2018-06-14T22:46:25.973Z,5.10
2018-06-14T22:48:54.225Z,5.43
2018-06-14T22:51:22.739Z,4.93
2018-06-14T22:53:50.891Z,5.47
2018-06-14T22:56:18.974Z,5.23
2018-06-14T22:58:47.140Z,4.90
2018-06-14T23:01:35.813Z,5.30
2018-06-14T23:04:04.705Z,4.70
2018-06-14T23:06:33.052Z,5.58
2018-06-14T23:09:05.449Z,5.00
2018-06-14T23:11:33.687Z,4.93
2018-06-14T23:14:01.893Z,5.47
2018-06-14T23:16:29.985Z,4.58
2018-06-14T23:18:58.416Z,4.80
2018-06-14T23:21:26.531Z,5.17
2018-06-14T23:23:54.641Z,5.87
2018-06-14T23:26:23.147Z,5.23
2018-06-14T23:28:51.305Z,5.10
2018-06-14T23:31:19.451Z,5.13
2018-06-14T23:33:47.639Z,5.77
2018-06-14T23:36:15.776Z,5.30
2018-06-14T23:38:44.026Z,4.70
2018-06-14T23:41:12.811Z,4.90
2018-06-14T23:43:42.179Z,4.73
2018-06-14T23:46:10.417Z,5.53
2018-06-14T23:48:38.490Z,4.73
2018-06-14T23:51:06.559Z,4.90
2018-06-14T23:53:34.725Z,5.70
2018-06-14T23:56:03.161Z,5.70
2018-06-14T23:58:31.343Z,4.70
